Time;durP1;ratioP1;P1;durP2;ratioP2;P2;SDS_P1;SDS_P2;PMS_P1;PMS_P2;Temp;Humidity;BMP_temperature;BMP_pressure;BME280_temperature;BME280_humidity;BME280_pressure;Samples;Min_cycle;Max_cycle;Signal;HPM_P1;HPM_P2
2021/03/04 00:00:05;;;;;;;14.05;8;;;;;;;2.82;51.97266;95881.67;;;;
2021/03/04 00:01:09;;;;;;;14.05;8;;;;;;;2.82;51.97266;95881.67;;;;
2021/03/04 00:02:10;;;;;;;14.05;8;;;;;;;2.82;51.97266;95881.67;;;;
2021/03/04 00:03:10;;;;;;;14.75;7.550001;;;;;;;2.91;52.06738;95873.13;;;;
2021/03/04 00:04:11;;;;;;;14.75;7.550001;;;;;;;2.91;52.06738;95873.13;;;;
2021/03/04 00:05:11;;;;;;;14.75;7.550001;;;;;;;2.91;52.06738;95873.13;;;;
2021/03/04 00:06:13;;;;;;;14.75;7.550001;;;;;;;2.91;52.06738;95873.13;;;;
2021/03/04 00:07:14;;;;;;;14.75;7.550001;;;;;;;2.91;52.06738;95873.13;;;;
2021/03/04 00:08:15;;;;;;;14.75;7.550001;;;;;;;2.91;52.06738;95873.13;;;;
2021/03/04 00:09:15;;;;;;;14.75;7.550001;;;;;;;2.91;52.06738;95873.13;;;;
2021/03/04 00:10:16;;;;;;;14.75;7.550001;;;;;;;2.91;52.06738;95873.13;;;;
2021/03/04 00:11:19;;;;;;;14.75;7.550001;;;;;;;2.91;52.06738;95873.13;;;;
2021/03/04 00:12:20;;;;;;;14.75;7.550001;;;;;;;2.91;52.06738;95873.13;;;;
2021/03/04 00:13:20;;;;;;;16.8;8.2;;;;;;;3.02;52.16602;95866.49;;;;
2021/03/04 00:14:21;;;;;;;16.8;8.2;;;;;;;3.02;52.16602;95866.49;;;;
2021/03/04 00:15:21;;;;;;;16.8;8.2;;;;;;;3.02;52.16602;95866.49;;;;
2021/03/04 00:16:24;;;;;;;16.8;8.2;;;;;;;3.02;52.16602;95866.49;;;;
2021/03/04 00:17:24;;;;;;;16.8;8.2;;;;;;;3.02;52.16602;95866.49;;;;
2021/03/04 00:18:25;;;;;;;16.8;8.2;;;;;;;3.02;52.16602;95866.49;;;;
2021/03/04 00:19:25;;;;;;;16.8;8.2;;;;;;;3.02;52.16602;95866.49;;;;
2021/03/04 00:20:26;;;;;;;16.8;8.2;;;;;;;3.02;52.16602;95866.49;;;;
2021/03/04 00:21:28;;;;;;;16.8;8.2;;;;;;;3.02;52.16602;95866.49;;;;
2021/03/04 00:22:29;;;;;;;16.8;8.2;;;;;;;3.02;52.16602;95866.49;;;;
2021/03/04 00:23:29;;;;;;;16.8;8.2;;;;;;;3.02;52.16602;95866.49;;;;
2021/03/04 00:24:30;;;;;;;12.05;7.05;;;;;;;3.09;52.2168;95855.02;;;;
2021/03/04 00:25:30;;;;;;;12.05;7.05;;;;;;;3.09;52.2168;95855.02;;;;
2021/03/04 00:26:34;;;;;;;12.05;7.05;;;;;;;3.09;52.2168;95855.02;;;;
2021/03/04 00:27:34;;;;;;;12.05;7.05;;;;;;;3.09;52.2168;95855.02;;;;
2021/03/04 00:28:35;;;;;;;12.05;7.05;;;;;;;3.09;52.2168;95855.02;;;;
2021/03/04 00:29:36;;;;;;;12.05;7.05;;;;;;;3.09;52.2168;95855.02;;;;
2021/03/04 00:30:36;;;;;;;12.05;7.05;;;;;;;3.09;52.2168;95855.02;;;;
2021/03/04 00:31:37;;;;;;;12.05;7.05;;;;;;;3.09;52.2168;95855.02;;;;
2021/03/04 00:32:37;;;;;;;12.05;7.05;;;;;;;3.09;52.2168;95855.02;;;;
2021/03/04 00:33:38;;;;;;;12.05;7.05;;;;;;;3.09;52.2168;95855.02;;;;
2021/03/04 00:34:38;;;;;;;11.6;5.95;;;;;;;3.13;52.33789;95842.99;;;;
2021/03/04 00:35:39;;;;;;;11.6;5.95;;;;;;;3.13;52.33789;95842.99;;;;
2021/03/04 00:36:39;;;;;;;11.6;5.95;;;;;;;3.13;52.33789;95842.99;;;;
2021/03/04 00:37:40;;;;;;;11.6;5.95;;;;;;;3.13;52.33789;95842.99;;;;
2021/03/04 00:38:41;;;;;;;11.6;5.95;;;;;;;3.13;52.33789;95842.99;;;;
2021/03/04 00:39:42;;;;;;;11.6;5.95;;;;;;;3.13;52.33789;95842.99;;;;
2021/03/04 00:40:42;;;;;;;11.6;5.95;;;;;;;3.13;52.33789;95842.99;;;;
2021/03/04 00:41:43;;;;;;;11.6;5.95;;;;;;;3.13;52.33789;95842.99;;;;
2021/03/04 00:42:43;;;;;;;11.6;5.95;;;;;;;3.13;52.33789;95842.99;;;;
2021/03/04 00:43:44;;;;;;;11.6;5.95;;;;;;;3.13;52.33789;95842.99;;;;
2021/03/04 00:44:45;;;;;;;11.6;5.95;;;;;;;3.13;52.33789;95842.99;;;;
2021/03/04 00:45:45;;;;;;;10.3;5.399999;;;;;;;3.08;52.54297;95836;;;;
2021/03/04 00:46:46;;;;;;;10.3;5.399999;;;;;;;3.08;52.54297;95836;;;;
2021/03/04 00:47:46;;;;;;;10.3;5.399999;;;;;;;3.08;52.54297;95836;;;;
2021/03/04 00:48:47;;;;;;;10.3;5.399999;;;;;;;3.08;52.54297;95836;;;;
2021/03/04 00:49:47;;;;;;;10.3;5.399999;;;;;;;3.08;52.54297;95836;;;;
2021/03/04 00:50:48;;;;;;;10.3;5.399999;;;;;;;3.08;52.54297;95836;;;;
2021/03/04 00:51:48;;;;;;;10.3;5.399999;;;;;;;3.08;52.54297;95836;;;;
2021/03/04 00:52:50;;;;;;;10.3;5.399999;;;;;;;3.08;52.54297;95836;;;;
2021/03/04 00:53:50;;;;;;;10.3;5.399999;;;;;;;3.08;52.54297;95836;;;;
2021/03/04 00:54:51;;;;;;;10.3;5.399999;;;;;;;3.08;52.54297;95836;;;;
2021/03/04 00:55:51;;;;;;;10.8;4.900001;;;;;;;2.99;52.83984;95820.14;;;;
2021/03/04 00:56:52;;;;;;;10.8;4.900001;;;;;;;2.99;52.83984;95820.14;;;;
2021/03/04 00:57:52;;;;;;;10.8;4.900001;;;;;;;2.99;52.83984;95820.14;;;;
2021/03/04 00:58:53;;;;;;;10.8;4.900001;;;;;;;2.99;52.83984;95820.14;;;;
2021/03/04 00:59:54;;;;;;;10.8;4.900001;;;;;;;2.99;52.83984;95820.14;;;;
2021/03/04 01:00:54;;;;;;;10.8;4.900001;;;;;;;2.99;52.83984;95820.14;;;;
2021/03/04 01:01:55;;;;;;;10.8;4.900001;;;;;;;2.99;52.83984;95820.14;;;;
2021/03/04 01:02:55;;;;;;;10.8;4.900001;;;;;;;2.99;52.83984;95820.14;;;;
2021/03/04 01:03:56;;;;;;;10.8;4.900001;;;;;;;2.99;52.83984;95820.14;;;;
2021/03/04 01:04:56;;;;;;;10.8;4.900001;;;;;;;2.99;52.83984;95820.14;;;;
2021/03/04 01:05:57;;;;;;;10.8;4.900001;;;;;;;2.99;52.83984;95820.14;;;;
2021/03/04 01:06:58;;;;;;;10.25;4.85;;;;;;;2.92;53.04297;95813.36;;;;
2021/03/04 01:07:58;;;;;;;10.25;4.85;;;;;;;2.92;53.04297;95813.36;;;;
2021/03/04 01:08:59;;;;;;;10.25;4.85;;;;;;;2.92;53.04297;95813.36;;;;
2021/03/04 01:09:59;;;;;;;10.25;4.85;;;;;;;2.92;53.04297;95813.36;;;;
2021/03/04 01:11:00;;;;;;;10.25;4.85;;;;;;;2.92;53.04297;95813.36;;;;
2021/03/04 01:12:01;;;;;;;10.25;4.85;;;;;;;2.92;53.04297;95813.36;;;;
2021/03/04 01:13:02;;;;;;;10.25;4.85;;;;;;;2.92;53.04297;95813.36;;;;
2021/03/04 01:14:03;;;;;;;10.25;4.85;;;;;;;2.92;53.04297;95813.36;;;;
2021/03/04 01:15:04;;;;;;;10.25;4.85;;;;;;;2.92;53.04297;95813.36;;;;
2021/03/04 01:16:07;;;;;;;10.25;4.85;;;;;;;2.92;53.04297;95813.36;;;;
2021/03/04 01:17:08;;;;;;;7.5;4.550001;;;;;;;2.94;53.19238;95802.09;;;;
2021/03/04 01:18:08;;;;;;;7.5;4.550001;;;;;;;2.94;53.19238;95802.09;;;;
2021/03/04 01:19:09;;;;;;;7.5;4.550001;;;;;;;2.94;53.19238;95802.09;;;;
2021/03/04 01:20:10;;;;;;;7.5;4.550001;;;;;;;2.94;53.19238;95802.09;;;;
2021/03/04 01:21:13;;;;;;;7.5;4.550001;;;;;;;2.94;53.19238;95802.09;;;;
2021/03/04 01:22:14;;;;;;;7.5;4.550001;;;;;;;2.94;53.19238;95802.09;;;;
2021/03/04 01:23:14;;;;;;;7.5;4.550001;;;;;;;2.94;53.19238;95802.09;;;;
2021/03/04 01:24:15;;;;;;;7.5;4.550001;;;;;;;2.94;53.19238;95802.09;;;;
2021/03/04 01:25:16;;;;;;;7.5;4.550001;;;;;;;2.94;53.19238;95802.09;;;;
2021/03/04 01:26:17;;;;;;;7.5;4.550001;;;;;;;2.94;53.19238;95802.09;;;;
2021/03/04 01:27:18;;;;;;;7.5;4.550001;;;;;;;2.94;53.19238;95802.09;;;;
2021/03/04 01:28:18;;;;;;;5.900001;4.35;;;;;;;2.98;53.30371;95770.48;;;;
2021/03/04 01:29:19;;;;;;;5.900001;4.35;;;;;;;2.98;53.30371;95770.48;;;;
2021/03/04 01:30:19;;;;;;;5.900001;4.35;;;;;;;2.98;53.30371;95770.48;;;;
2021/03/04 01:31:25;;;;;;;5.900001;4.35;;;;;;;2.98;53.30371;95770.48;;;;
2021/03/04 01:32:25;;;;;;;5.900001;4.35;;;;;;;2.98;53.30371;95770.48;;;;
2021/03/04 01:33:26;;;;;;;5.900001;4.35;;;;;;;2.98;53.30371;95770.48;;;;
2021/03/04 01:34:26;;;;;;;5.900001;4.35;;;;;;;2.98;53.30371;95770.48;;;;
2021/03/04 01:35:27;;;;;;;5.900001;4.35;;;;;;;2.98;53.30371;95770.48;;;;
2021/03/04 01:36:27;;;;;;;5.900001;4.35;;;;;;;2.98;53.30371;95770.48;;;;
2021/03/04 01:37:28;;;;;;;5.900001;4.35;;;;;;;2.98;53.30371;95770.48;;;;
2021/03/04 01:38:28;;;;;;;6.8;4.35;;;;;;;3;53.5918;95773.28;;;;
2021/03/04 01:39:29;;;;;;;6.8;4.35;;;;;;;3;53.5918;95773.28;;;;
2021/03/04 01:40:29;;;;;;;6.8;4.35;;;;;;;3;53.5918;95773.28;;;;
2021/03/04 01:41:30;;;;;;;6.8;4.35;;;;;;;3;53.5918;95773.28;;;;
2021/03/04 01:42:30;;;;;;;6.8;4.35;;;;;;;3;53.5918;95773.28;;;;
2021/03/04 01:43:31;;;;;;;6.8;4.35;;;;;;;3;53.5918;95773.28;;;;
2021/03/04 01:44:31;;;;;;;6.8;4.35;;;;;;;3;53.5918;95773.28;;;;
2021/03/04 01:45:32;;;;;;;6.8;4.35;;;;;;;3;53.5918;95773.28;;;;
2021/03/04 01:46:32;;;;;;;6.8;4.35;;;;;;;3;53.5918;95773.28;;;;
2021/03/04 01:47:34;;;;;;;6.8;4.35;;;;;;;3;53.5918;95773.28;;;;
2021/03/04 01:48:35;;;;;;;6.8;4.35;;;;;;;3;53.5918;95773.28;;;;
2021/03/04 01:49:36;;;;;;;6.75;4.050001;;;;;;;3.05;53.65039;95757.19;;;;
2021/03/04 01:50:37;;;;;;;6.75;4.050001;;;;;;;3.05;53.65039;95757.19;;;;
2021/03/04 01:51:38;;;;;;;6.75;4.050001;;;;;;;3.05;53.65039;95757.19;;;;
2021/03/04 01:52:39;;;;;;;6.75;4.050001;;;;;;;3.05;53.65039;95757.19;;;;
2021/03/04 01:53:40;;;;;;;6.75;4.050001;;;;;;;3.05;53.65039;95757.19;;;;
2021/03/04 01:54:41;;;;;;;6.75;4.050001;;;;;;;3.05;53.65039;95757.19;;;;
2021/03/04 01:55:42;;;;;;;6.75;4.050001;;;;;;;3.05;53.65039;95757.19;;;;
2021/03/04 01:56:42;;;;;;;6.75;4.050001;;;;;;;3.05;53.65039;95757.19;;;;
2021/03/04 01:57:44;;;;;;;6.75;4.050001;;;;;;;3.05;53.65039;95757.19;;;;
2021/03/04 01:58:47;;;;;;;6.75;4.050001;;;;;;;3.05;53.65039;95757.19;;;;
2021/03/04 01:59:47;;;;;;;6.55;4.25;;;;;;;3.11;53.60547;95752.97;;;;
2021/03/04 02:06:00;;;;;;;6.55;4.25;;;;;;;3.11;53.60547;95752.97;;;;
2021/03/04 02:07:01;;;;;;;6.55;4.25;;;;;;;3.11;53.60547;95752.97;;;;
2021/03/04 02:08:08;;;;;;;6.55;4.25;;;;;;;3.11;53.60547;95752.97;;;;
2021/03/04 02:09:18;;;;;;;6.55;4.25;;;;;;;3.11;53.60547;95752.97;;;;
2021/03/04 02:10:21;;;;;;;6.55;4.25;;;;;;;3.11;53.60547;95752.97;;;;
2021/03/04 02:11:31;;;;;;;6.249999;4;;;;;;;3.11;53.77539;95733.77;;;;
2021/03/04 02:12:37;;;;;;;6.249999;4;;;;;;;3.11;53.77539;95733.77;;;;
2021/03/04 02:13:43;;;;;;;6.249999;4;;;;;;;3.11;53.77539;95733.77;;;;
2021/03/04 02:14:47;;;;;;;6.249999;4;;;;;;;3.11;53.77539;95733.77;;;;
2021/03/04 02:15:51;;;;;;;6.249999;4;;;;;;;3.11;53.77539;95733.77;;;;
2021/03/04 02:16:56;;;;;;;6.249999;4;;;;;;;3.11;53.77539;95733.77;;;;
2021/03/04 02:18:02;;;;;;;6.249999;4;;;;;;;3.11;53.77539;95733.77;;;;
2021/03/04 02:19:06;;;;;;;6.249999;4;;;;;;;3.11;53.77539;95733.77;;;;
2021/03/04 02:20:10;;;;;;;6.249999;4;;;;;;;3.11;53.77539;95733.77;;;;
2021/03/04 02:21:25;;;;;;;6.5;3.45;;;;;;;3.22;53.88477;95717.35;;;;
2021/03/04 02:22:36;;;;;;;6.5;3.45;;;;;;;3.22;53.88477;95717.35;;;;
2021/03/04 02:23:51;;;;;;;6.5;3.45;;;;;;;3.22;53.88477;95717.35;;;;
2021/03/04 02:25:05;;;;;;;6.5;3.45;;;;;;;3.22;53.88477;95717.35;;;;
2021/03/04 02:26:12;;;;;;;6.5;3.45;;;;;;;3.22;53.88477;95717.35;;;;
2021/03/04 02:27:28;;;;;;;6.5;3.45;;;;;;;3.22;53.88477;95717.35;;;;
2021/03/04 02:28:29;;;;;;;6.5;3.45;;;;;;;3.22;53.88477;95717.35;;;;
2021/03/04 02:29:31;;;;;;;6.5;3.45;;;;;;;3.22;53.88477;95717.35;;;;
2021/03/04 02:30:37;;;;;;;6.5;3.45;;;;;;;3.22;53.88477;95717.35;;;;
2021/03/04 02:31:40;;;;;;;6.5;3.45;;;;;;;3.22;53.88477;95717.35;;;;
2021/03/04 02:32:43;;;;;;;6.85;3.65;;;;;;;3.46;53.88281;95707.78;;;;
2021/03/04 02:33:47;;;;;;;6.85;3.65;;;;;;;3.46;53.88281;95707.78;;;;
2021/03/04 02:34:48;;;;;;;6.85;3.65;;;;;;;3.46;53.88281;95707.78;;;;
2021/03/04 02:35:54;;;;;;;6.85;3.65;;;;;;;3.46;53.88281;95707.78;;;;
2021/03/04 02:36:55;;;;;;;6.85;3.65;;;;;;;3.46;53.88281;95707.78;;;;
2021/03/04 02:37:56;;;;;;;6.85;3.65;;;;;;;3.46;53.88281;95707.78;;;;
2021/03/04 02:39:00;;;;;;;6.85;3.65;;;;;;;3.46;53.88281;95707.78;;;;
2021/03/04 02:40:03;;;;;;;6.85;3.65;;;;;;;3.46;53.88281;95707.78;;;;
2021/03/04 02:41:08;;;;;;;6.85;3.65;;;;;;;3.46;53.88281;95707.78;;;;
2021/03/04 02:42:09;;;;;;;6.85;3.65;;;;;;;3.46;53.88281;95707.78;;;;
2021/03/04 02:43:10;;;;;;;6.35;3.85;;;;;;;3.61;53.87988;95701.54;;;;
2021/03/04 02:44:13;;;;;;;6.35;3.85;;;;;;;3.61;53.87988;95701.54;;;;
2021/03/04 02:45:15;;;;;;;6.35;3.85;;;;;;;3.61;53.87988;95701.54;;;;
2021/03/04 02:46:17;;;;;;;6.35;3.85;;;;;;;3.61;53.87988;95701.54;;;;
2021/03/04 02:47:18;;;;;;;6.35;3.85;;;;;;;3.61;53.87988;95701.54;;;;
2021/03/04 02:48:20;;;;;;;6.35;3.85;;;;;;;3.61;53.87988;95701.54;;;;
2021/03/04 02:49:22;;;;;;;6.35;3.85;;;;;;;3.61;53.87988;95701.54;;;;
2021/03/04 02:50:23;;;;;;;6.35;3.85;;;;;;;3.61;53.87988;95701.54;;;;
2021/03/04 02:51:25;;;;;;;6.35;3.85;;;;;;;3.61;53.87988;95701.54;;;;
2021/03/04 02:52:27;;;;;;;6.35;3.85;;;;;;;3.61;53.87988;95701.54;;;;
2021/03/04 02:53:28;;;;;;;6.600001;3.9;;;;;;;3.74;53.94824;95699.58;;;;
2021/03/04 02:54:29;;;;;;;6.600001;3.9;;;;;;;3.74;53.94824;95699.58;;;;
2021/03/04 02:55:30;;;;;;;6.600001;3.9;;;;;;;3.74;53.94824;95699.58;;;;
2021/03/04 02:56:32;;;;;;;6.600001;3.9;;;;;;;3.74;53.94824;95699.58;;;;
2021/03/04 02:57:35;;;;;;;6.600001;3.9;;;;;;;3.74;53.94824;95699.58;;;;
2021/03/04 02:58:40;;;;;;;6.600001;3.9;;;;;;;3.74;53.94824;95699.58;;;;
2021/03/04 02:59:41;;;;;;;6.600001;3.9;;;;;;;3.74;53.94824;95699.58;;;;
2021/03/04 03:00:43;;;;;;;6.600001;3.9;;;;;;;3.74;53.94824;95699.58;;;;
2021/03/04 03:01:46;;;;;;;6.600001;3.9;;;;;;;3.74;53.94824;95699.58;;;;
2021/03/04 03:02:47;;;;;;;6.600001;3.9;;;;;;;3.74;53.94824;95699.58;;;;
2021/03/04 03:03:49;;;;;;;6.600001;3.9;;;;;;;3.74;53.94824;95699.58;;;;
2021/03/04 03:04:52;;;;;;;5.450001;3.95;;;;;;;3.92;53.8877;95696.45;;;;
2021/03/04 03:05:54;;;;;;;5.450001;3.95;;;;;;;3.92;53.8877;95696.45;;;;
2021/03/04 03:06:55;;;;;;;5.450001;3.95;;;;;;;3.92;53.8877;95696.45;;;;
2021/03/04 03:07:56;;;;;;;5.450001;3.95;;;;;;;3.92;53.8877;95696.45;;;;
2021/03/04 03:08:58;;;;;;;5.450001;3.95;;;;;;;3.92;53.8877;95696.45;;;;
2021/03/04 03:10:01;;;;;;;5.450001;3.95;;;;;;;3.92;53.8877;95696.45;;;;
2021/03/04 03:11:03;;;;;;;5.450001;3.95;;;;;;;3.92;53.8877;95696.45;;;;
2021/03/04 03:12:04;;;;;;;5.450001;3.95;;;;;;;3.92;53.8877;95696.45;;;;
2021/03/04 03:13:07;;;;;;;5.450001;3.95;;;;;;;3.92;53.8877;95696.45;;;;
2021/03/04 03:14:09;;;;;;;5.450001;3.95;;;;;;;3.92;53.8877;95696.45;;;;
2021/03/04 03:15:10;;;;;;;6.15;3.85;;;;;;;4.01;53.87695;95689.97;;;;
2021/03/04 03:16:13;;;;;;;6.15;3.85;;;;;;;4.01;53.87695;95689.97;;;;
2021/03/04 03:17:13;;;;;;;6.15;3.85;;;;;;;4.01;53.87695;95689.97;;;;
2021/03/04 03:18:14;;;;;;;6.15;3.85;;;;;;;4.01;53.87695;95689.97;;;;
2021/03/04 03:19:15;;;;;;;6.15;3.85;;;;;;;4.01;53.87695;95689.97;;;;
2021/03/04 03:20:15;;;;;;;6.15;3.85;;;;;;;4.01;53.87695;95689.97;;;;
2021/03/04 03:21:18;;;;;;;6.15;3.85;;;;;;;4.01;53.87695;95689.97;;;;
2021/03/04 03:22:19;;;;;;;6.15;3.85;;;;;;;4.01;53.87695;95689.97;;;;
2021/03/04 03:23:19;;;;;;;6.15;3.85;;;;;;;4.01;53.87695;95689.97;;;;
2021/03/04 03:24:20;;;;;;;6.15;3.85;;;;;;;4.01;53.87695;95689.97;;;;
2021/03/04 03:25:20;;;;;;;7.1;4.050001;;;;;;;4.04;53.94434;95682.09;;;;
2021/03/04 03:26:21;;;;;;;7.1;4.050001;;;;;;;4.04;53.94434;95682.09;;;;
2021/03/04 03:27:21;;;;;;;7.1;4.050001;;;;;;;4.04;53.94434;95682.09;;;;
2021/03/04 03:28:22;;;;;;;7.1;4.050001;;;;;;;4.04;53.94434;95682.09;;;;
2021/03/04 03:29:22;;;;;;;7.1;4.050001;;;;;;;4.04;53.94434;95682.09;;;;
2021/03/04 03:30:23;;;;;;;7.1;4.050001;;;;;;;4.04;53.94434;95682.09;;;;
2021/03/04 03:31:26;;;;;;;7.1;4.050001;;;;;;;4.04;53.94434;95682.09;;;;
2021/03/04 03:32:28;;;;;;;7.1;4.050001;;;;;;;4.04;53.94434;95682.09;;;;
2021/03/04 03:33:31;;;;;;;7.1;4.050001;;;;;;;4.04;53.94434;95682.09;;;;
2021/03/04 03:34:32;;;;;;;7.1;4.050001;;;;;;;4.04;53.94434;95682.09;;;;
2021/03/04 03:35:33;;;;;;;7.1;4.050001;;;;;;;4.04;53.94434;95682.09;;;;
2021/03/04 03:36:34;;;;;;;7.799999;4.35;;;;;;;4.03;54.00781;95677.67;;;;
2021/03/04 03:37:35;;;;;;;7.799999;4.35;;;;;;;4.03;54.00781;95677.67;;;;
2021/03/04 03:38:37;;;;;;;7.799999;4.35;;;;;;;4.03;54.00781;95677.67;;;;
2021/03/04 03:39:39;;;;;;;7.799999;4.35;;;;;;;4.03;54.00781;95677.67;;;;
2021/03/04 03:40:40;;;;;;;7.799999;4.35;;;;;;;4.03;54.00781;95677.67;;;;
2021/03/04 03:41:46;;;;;;;7.799999;4.35;;;;;;;4.03;54.00781;95677.67;;;;
2021/03/04 03:42:47;;;;;;;7.799999;4.35;;;;;;;4.03;54.00781;95677.67;;;;
2021/03/04 03:43:48;;;;;;;7.799999;4.35;;;;;;;4.03;54.00781;95677.67;;;;
2021/03/04 03:44:49;;;;;;;7.799999;4.35;;;;;;;4.03;54.00781;95677.67;;;;
2021/03/04 03:45:52;;;;;;;7.799999;4.35;;;;;;;4.03;54.00781;95677.67;;;;
2021/03/04 03:46:54;;;;;;;9.5;4.400001;;;;;;;4.08;54.17285;95681.94;;;;
2021/03/04 03:47:55;;;;;;;9.5;4.400001;;;;;;;4.08;54.17285;95681.94;;;;
2021/03/04 03:48:57;;;;;;;9.5;4.400001;;;;;;;4.08;54.17285;95681.94;;;;
2021/03/04 03:50:01;;;;;;;9.5;4.400001;;;;;;;4.08;54.17285;95681.94;;;;
2021/03/04 03:51:04;;;;;;;9.5;4.400001;;;;;;;4.08;54.17285;95681.94;;;;
2021/03/04 03:52:05;;;;;;;9.5;4.400001;;;;;;;4.08;54.17285;95681.94;;;;
2021/03/04 03:53:05;;;;;;;9.5;4.400001;;;;;;;4.08;54.17285;95681.94;;;;
2021/03/04 03:54:06;;;;;;;9.5;4.400001;;;;;;;4.08;54.17285;95681.94;;;;
2021/03/04 03:55:08;;;;;;;9.5;4.400001;;;;;;;4.08;54.17285;95681.94;;;;
2021/03/04 03:56:09;;;;;;;9.5;4.400001;;;;;;;4.08;54.17285;95681.94;;;;
2021/03/04 03:57:12;;;;;;;9.5;4.400001;;;;;;;4.08;54.17285;95681.94;;;;
2021/03/04 03:58:13;;;;;;;7;4.25;;;;;;;4.07;54.27637;95676.79;;;;
2021/03/04 03:59:17;;;;;;;7;4.25;;;;;;;4.07;54.27637;95676.79;;;;
2021/03/04 04:00:23;;;;;;;7;4.25;;;;;;;4.07;54.27637;95676.79;;;;
2021/03/04 04:01:24;;;;;;;7;4.25;;;;;;;4.07;54.27637;95676.79;;;;
2021/03/04 04:02:27;;;;;;;7;4.25;;;;;;;4.07;54.27637;95676.79;;;;
2021/03/04 04:03:29;;;;;;;7;4.25;;;;;;;4.07;54.27637;95676.79;;;;
2021/03/04 04:04:29;;;;;;;7;4.25;;;;;;;4.07;54.27637;95676.79;;;;
2021/03/04 04:05:30;;;;;;;7;4.25;;;;;;;4.07;54.27637;95676.79;;;;
2021/03/04 04:06:31;;;;;;;7;4.25;;;;;;;4.07;54.27637;95676.79;;;;
2021/03/04 04:07:32;;;;;;;7;4.25;;;;;;;4.07;54.27637;95676.79;;;;
2021/03/04 04:08:33;;;;;;;6.400001;4.1;;;;;;;4.1;54.38672;95676.83;;;;
2021/03/04 04:09:35;;;;;;;6.400001;4.1;;;;;;;4.1;54.38672;95676.83;;;;
2021/03/04 04:10:36;;;;;;;6.400001;4.1;;;;;;;4.1;54.38672;95676.83;;;;
2021/03/04 04:11:38;;;;;;;6.400001;4.1;;;;;;;4.1;54.38672;95676.83;;;;
2021/03/04 04:12:39;;;;;;;6.400001;4.1;;;;;;;4.1;54.38672;95676.83;;;;
2021/03/04 04:13:39;;;;;;;6.400001;4.1;;;;;;;4.1;54.38672;95676.83;;;;
2021/03/04 04:14:40;;;;;;;6.400001;4.1;;;;;;;4.1;54.38672;95676.83;;;;
2021/03/04 04:15:40;;;;;;;6.400001;4.1;;;;;;;4.1;54.38672;95676.83;;;;
2021/03/04 04:16:41;;;;;;;6.400001;4.1;;;;;;;4.1;54.38672;95676.83;;;;
2021/03/04 04:17:42;;;;;;;6.400001;4.1;;;;;;;4.1;54.38672;95676.83;;;;
2021/03/04 04:18:43;;;;;;;7.85;4.649999;;;;;;;4.15;54.44727;95680.2;;;;
2021/03/04 04:19:44;;;;;;;7.85;4.649999;;;;;;;4.15;54.44727;95680.2;;;;
2021/03/04 04:20:45;;;;;;;7.85;4.649999;;;;;;;4.15;54.44727;95680.2;;;;
2021/03/04 04:21:46;;;;;;;7.85;4.649999;;;;;;;4.15;54.44727;95680.2;;;;
2021/03/04 04:22:46;;;;;;;7.85;4.649999;;;;;;;4.15;54.44727;95680.2;;;;
2021/03/04 04:23:48;;;;;;;7.85;4.649999;;;;;;;4.15;54.44727;95680.2;;;;
2021/03/04 04:24:49;;;;;;;7.85;4.649999;;;;;;;4.15;54.44727;95680.2;;;;
2021/03/04 04:25:51;;;;;;;7.85;4.649999;;;;;;;4.15;54.44727;95680.2;;;;
2021/03/04 04:26:53;;;;;;;7.85;4.649999;;;;;;;4.15;54.44727;95680.2;;;;
2021/03/04 04:27:53;;;;;;;7.85;4.649999;;;;;;;4.15;54.44727;95680.2;;;;
2021/03/04 04:28:55;;;;;;;7.85;4.649999;;;;;;;4.15;54.44727;95680.2;;;;
2021/03/04 04:29:56;;;;;;;6.999999;4.3;;;;;;;4.22;54.48633;95670.92;;;;
2021/03/04 04:30:56;;;;;;;6.999999;4.3;;;;;;;4.22;54.48633;95670.92;;;;
2021/03/04 04:31:57;;;;;;;6.999999;4.3;;;;;;;4.22;54.48633;95670.92;;;;
2021/03/04 04:32:57;;;;;;;6.999999;4.3;;;;;;;4.22;54.48633;95670.92;;;;
2021/03/04 04:33:58;;;;;;;6.999999;4.3;;;;;;;4.22;54.48633;95670.92;;;;
2021/03/04 04:34:58;;;;;;;6.999999;4.3;;;;;;;4.22;54.48633;95670.92;;;;
2021/03/04 04:35:59;;;;;;;6.999999;4.3;;;;;;;4.22;54.48633;95670.92;;;;
2021/03/04 04:37:00;;;;;;;6.999999;4.3;;;;;;;4.22;54.48633;95670.92;;;;
2021/03/04 04:38:00;;;;;;;6.999999;4.3;;;;;;;4.22;54.48633;95670.92;;;;
2021/03/04 04:39:01;;;;;;;6.999999;4.3;;;;;;;4.22;54.48633;95670.92;;;;
2021/03/04 04:40:02;;;;;;;7.55;4.1;;;;;;;4.32;54.56348;95667.85;;;;
2021/03/04 04:41:05;;;;;;;7.55;4.1;;;;;;;4.32;54.56348;95667.85;;;;
2021/03/04 04:42:05;;;;;;;7.55;4.1;;;;;;;4.32;54.56348;95667.85;;;;
2021/03/04 04:43:07;;;;;;;7.55;4.1;;;;;;;4.32;54.56348;95667.85;;;;
2021/03/04 04:44:08;;;;;;;7.55;4.1;;;;;;;4.32;54.56348;95667.85;;;;
2021/03/04 04:45:09;;;;;;;7.55;4.1;;;;;;;4.32;54.56348;95667.85;;;;
2021/03/04 04:46:09;;;;;;;7.55;4.1;;;;;;;4.32;54.56348;95667.85;;;;
2021/03/04 04:47:10;;;;;;;7.55;4.1;;;;;;;4.32;54.56348;95667.85;;;;
2021/03/04 04:48:11;;;;;;;7.55;4.1;;;;;;;4.32;54.56348;95667.85;;;;
2021/03/04 04:49:12;;;;;;;7.55;4.1;;;;;;;4.32;54.56348;95667.85;;;;
2021/03/04 04:50:12;;;;;;;7.55;4.1;;;;;;;4.32;54.56348;95667.85;;;;
2021/03/04 04:51:13;;;;;;;7.149999;4.4;;;;;;;4.36;54.64258;95651.84;;;;
2021/03/04 04:52:13;;;;;;;7.149999;4.4;;;;;;;4.36;54.64258;95651.84;;;;
2021/03/04 04:53:14;;;;;;;7.149999;4.4;;;;;;;4.36;54.64258;95651.84;;;;
2021/03/04 04:54:14;;;;;;;7.149999;4.4;;;;;;;4.36;54.64258;95651.84;;;;
2021/03/04 04:55:15;;;;;;;7.149999;4.4;;;;;;;4.36;54.64258;95651.84;;;;
2021/03/04 04:56:15;;;;;;;7.149999;4.4;;;;;;;4.36;54.64258;95651.84;;;;
2021/03/04 04:57:16;;;;;;;7.149999;4.4;;;;;;;4.36;54.64258;95651.84;;;;
2021/03/04 04:58:16;;;;;;;7.149999;4.4;;;;;;;4.36;54.64258;95651.84;;;;
2021/03/04 04:59:17;;;;;;;7.149999;4.4;;;;;;;4.36;54.64258;95651.84;;;;
2021/03/04 05:00:17;;;;;;;7.149999;4.4;;;;;;;4.36;54.64258;95651.84;;;;
2021/03/04 05:01:19;;;;;;;5.5;3.95;;;;;;;4.4;54.89258;95642.36;;;;
2021/03/04 05:02:20;;;;;;;5.5;3.95;;;;;;;4.4;54.89258;95642.36;;;;
2021/03/04 05:03:20;;;;;;;5.5;3.95;;;;;;;4.4;54.89258;95642.36;;;;
2021/03/04 05:04:21;;;;;;;5.5;3.95;;;;;;;4.4;54.89258;95642.36;;;;
2021/03/04 05:05:21;;;;;;;5.5;3.95;;;;;;;4.4;54.89258;95642.36;;;;
2021/03/04 05:06:23;;;;;;;5.5;3.95;;;;;;;4.4;54.89258;95642.36;;;;
2021/03/04 05:07:23;;;;;;;5.5;3.95;;;;;;;4.4;54.89258;95642.36;;;;
2021/03/04 05:08:24;;;;;;;5.5;3.95;;;;;;;4.4;54.89258;95642.36;;;;
2021/03/04 05:09:24;;;;;;;5.5;3.95;;;;;;;4.4;54.89258;95642.36;;;;
2021/03/04 05:10:25;;;;;;;5.5;3.95;;;;;;;4.4;54.89258;95642.36;;;;
2021/03/04 05:11:26;;;;;;;5.5;3.95;;;;;;;4.4;54.89258;95642.36;;;;
2021/03/04 05:12:26;;;;;;;5.85;4;;;;;;;4.44;55.03516;95636.93;;;;
2021/03/04 05:13:27;;;;;;;5.85;4;;;;;;;4.44;55.03516;95636.93;;;;
2021/03/04 05:14:27;;;;;;;5.85;4;;;;;;;4.44;55.03516;95636.93;;;;
2021/03/04 05:15:28;;;;;;;5.85;4;;;;;;;4.44;55.03516;95636.93;;;;
2021/03/04 05:16:28;;;;;;;5.85;4;;;;;;;4.44;55.03516;95636.93;;;;
2021/03/04 05:17:29;;;;;;;5.85;4;;;;;;;4.44;55.03516;95636.93;;;;
2021/03/04 05:18:29;;;;;;;5.85;4;;;;;;;4.44;55.03516;95636.93;;;;
2021/03/04 05:19:30;;;;;;;5.85;4;;;;;;;4.44;55.03516;95636.93;;;;
2021/03/04 05:20:31;;;;;;;5.85;4;;;;;;;4.44;55.03516;95636.93;;;;
2021/03/04 05:21:31;;;;;;;5.85;4;;;;;;;4.44;55.03516;95636.93;;;;
2021/03/04 05:22:32;;;;;;;5.85;4;;;;;;;4.44;55.03516;95636.93;;;;
2021/03/04 05:23:33;;;;;;;6.749999;3.8;;;;;;;4.54;55.11035;95624.17;;;;
2021/03/04 05:24:34;;;;;;;6.749999;3.8;;;;;;;4.54;55.11035;95624.17;;;;
2021/03/04 05:25:34;;;;;;;6.749999;3.8;;;;;;;4.54;55.11035;95624.17;;;;
2021/03/04 05:26:36;;;;;;;6.749999;3.8;;;;;;;4.54;55.11035;95624.17;;;;
2021/03/04 05:27:36;;;;;;;6.749999;3.8;;;;;;;4.54;55.11035;95624.17;;;;
2021/03/04 05:28:37;;;;;;;6.749999;3.8;;;;;;;4.54;55.11035;95624.17;;;;
2021/03/04 05:29:37;;;;;;;6.749999;3.8;;;;;;;4.54;55.11035;95624.17;;;;
2021/03/04 05:30:38;;;;;;;6.749999;3.8;;;;;;;4.54;55.11035;95624.17;;;;
2021/03/04 05:31:38;;;;;;;6.749999;3.8;;;;;;;4.54;55.11035;95624.17;;;;
2021/03/04 05:32:39;;;;;;;6.749999;3.8;;;;;;;4.54;55.11035;95624.17;;;;
2021/03/04 05:33:39;;;;;;;5.850001;3.8;;;;;;;4.53;55.24707;95618.02;;;;
2021/03/04 05:34:40;;;;;;;5.850001;3.8;;;;;;;4.53;55.24707;95618.02;;;;
2021/03/04 05:35:40;;;;;;;5.850001;3.8;;;;;;;4.53;55.24707;95618.02;;;;
2021/03/04 05:36:41;;;;;;;5.850001;3.8;;;;;;;4.53;55.24707;95618.02;;;;
2021/03/04 05:37:41;;;;;;;5.850001;3.8;;;;;;;4.53;55.24707;95618.02;;;;
2021/03/04 05:38:42;;;;;;;5.850001;3.8;;;;;;;4.53;55.24707;95618.02;;;;
2021/03/04 05:39:43;;;;;;;5.850001;3.8;;;;;;;4.53;55.24707;95618.02;;;;
2021/03/04 05:40:43;;;;;;;5.850001;3.8;;;;;;;4.53;55.24707;95618.02;;;;
2021/03/04 05:41:44;;;;;;;5.850001;3.8;;;;;;;4.53;55.24707;95618.02;;;;
2021/03/04 05:42:44;;;;;;;5.850001;3.8;;;;;;;4.53;55.24707;95618.02;;;;
2021/03/04 05:43:45;;;;;;;5.850001;3.8;;;;;;;4.53;55.24707;95618.02;;;;
2021/03/04 05:44:46;;;;;;;7.8;3.85;;;;;;;4.56;55.33594;95610.53;;;;
2021/03/04 05:45:47;;;;;;;7.8;3.85;;;;;;;4.56;55.33594;95610.53;;;;
2021/03/04 05:46:49;;;;;;;7.8;3.85;;;;;;;4.56;55.33594;95610.53;;;;
2021/03/04 05:47:51;;;;;;;7.8;3.85;;;;;;;4.56;55.33594;95610.53;;;;
2021/03/04 05:48:54;;;;;;;7.8;3.85;;;;;;;4.56;55.33594;95610.53;;;;
2021/03/04 05:49:56;;;;;;;7.8;3.85;;;;;;;4.56;55.33594;95610.53;;;;
2021/03/04 05:51:02;;;;;;;7.8;3.85;;;;;;;4.56;55.33594;95610.53;;;;
2021/03/04 05:52:05;;;;;;;7.8;3.85;;;;;;;4.56;55.33594;95610.53;;;;